Time;durP1;ratioP1;P1;durP2;ratioP2;P2;SDS_P1;SDS_P2;PMS_P1;PMS_P2;Temp;Humidity;BMP_temperature;BMP_pressure;BME280_temperature;BME280_humidity;BME280_pressure;Samples;Min_cycle;Max_cycle;Signal;HPM_P1;HPM_P2
2022/03/14 00:01:19;;;;;;;18.40;12.02;;;;;;;3.91;34.51;101616.19;7399252;19;20010;-67
2022/03/14 00:03:50;;;;;;;23.00;12.90;;;;;;;3.88;34.38;101618.69;7396883;19;20038;-68
2022/03/14 00:06:18;;;;;;;21.92;12.25;;;;;;;3.84;34.48;101622.97;7396481;19;20487;-68
2022/03/14 00:08:47;;;;;;;20.70;12.35;;;;;;;3.81;34.09;101627.22;7398853;19;20031;-67
2022/03/14 00:11:16;;;;;;;21.15;12.48;;;;;;;3.79;34.50;101631.50;7398557;19;20376;-67
2022/03/14 00:13:46;;;;;;;21.00;12.68;;;;;;;3.74;34.21;101624.50;7396063;19;20479;-68
2022/03/14 00:16:20;;;;;;;21.20;12.05;;;;;;;3.72;34.31;101623.59;7398841;19;20021;-68
2022/03/14 00:18:51;;;;;;;;;;;;;;;3.70;34.70;101621.81;7399971;19;20024;-67
2022/03/14 00:21:22;;;;;;;25.00;13.40;;;;;;;3.65;34.56;101616.53;7396215;19;20256;-68
2022/03/14 00:23:50;;;;;;;20.52;12.52;;;;;;;3.63;34.42;101617.31;7396717;19;20018;-67
2022/03/14 00:26:19;;;;;;;26.92;13.52;;;;;;;3.57;34.58;101608.56;7397909;19;20395;-67
2022/03/14 00:28:48;;;;;;;23.25;13.45;;;;;;;3.53;34.74;101604.16;7395831;19;20368;-67
2022/03/14 00:31:16;;;;;;;24.38;13.32;;;;;;;3.49;34.66;101604.94;7398199;19;20015;-68
2022/03/14 00:33:45;;;;;;;20.08;12.43;;;;;;;3.48;34.77;101610.13;7395996;19;20015;-67
2022/03/14 00:36:15;;;;;;;22.50;14.05;;;;;;;3.46;34.94;101602.28;7396208;19;20031;-67
2022/03/14 00:38:44;;;;;;;24.00;13.23;;;;;;;3.43;34.96;101594.44;7396390;19;20026;-68
2022/03/14 00:41:12;;;;;;;21.70;12.70;;;;;;;3.39;34.98;101596.09;7394368;19;20028;-66
2022/03/14 00:43:41;;;;;;;24.63;14.13;;;;;;;3.39;34.76;101610.78;7395716;19;20022;-66
2022/03/14 00:46:09;;;;;;;21.90;13.45;;;;;;;3.38;34.70;101612.50;7397688;19;20015;-67
2022/03/14 00:48:37;;;;;;;22.27;13.43;;;;;;;3.36;34.76;101614.19;7397631;19;20022;-66
2022/03/14 00:51:06;;;;;;;21.88;13.90;;;;;;;3.35;34.69;101615.03;7397448;19;20014;-66
2022/03/14 00:53:37;;;;;;;23.60;13.40;;;;;;;3.34;35.04;101615.88;7395399;19;20032;-66
2022/03/14 00:56:07;;;;;;;24.70;14.40;;;;;;;3.32;35.09;101617.53;7395928;19;20022;-66
2022/03/14 00:58:35;;;;;;;24.23;14.68;;;;;;;3.29;35.02;101622.66;7397028;19;20494;-70
2022/03/14 01:01:05;;;;;;;24.40;13.85;;;;;;;3.26;35.00;101612.22;7396992;19;20436;-70
2022/03/14 01:03:35;;;;;;;24.23;14.27;;;;;;;3.24;35.19;101619.09;7395742;19;20017;-67
2022/03/14 01:06:03;;;;;;;26.15;15.52;;;;;;;3.19;35.33;101612.94;7396860;19;20053;-66
2022/03/14 01:08:31;;;;;;;22.60;14.07;;;;;;;3.14;35.29;101606.78;7395152;19;20022;-65
2022/03/14 01:11:02;;;;;;;23.33;13.30;;;;;;;3.09;35.31;101602.34;7396824;19;20413;-66
2022/03/14 01:13:30;;;;;;;24.65;13.93;;;;;;;3.07;35.56;101603.13;7395679;19;20022;-66
2022/03/14 01:15:59;;;;;;;23.48;13.85;;;;;;;3.02;35.47;101608.25;7394987;19;20022;-67
2022/03/14 01:18:27;;;;;;;26.75;15.05;;;;;;;2.97;35.58;101602.06;7395600;19;20022;-66
2022/03/14 01:20:56;;;;;;;22.90;13.57;;;;;;;2.95;35.68;101606.34;7396518;19;20011;-66
2022/03/14 01:23:24;;;;;;;27.10;15.32;;;;;;;2.93;35.82;101602.81;7394645;19;20035;-66
2022/03/14 01:25:52;;;;;;;25.73;13.50;;;;;;;2.89;35.83;101601.91;7396308;19;20023;-66
2022/03/14 01:28:23;;;;;;;29.52;15.77;;;;;;;2.86;35.68;101606.13;7396204;19;20022;-66
2022/03/14 01:30:51;;;;;;;26.08;14.85;;;;;;;2.84;35.76;101616.44;7394973;19;20027;-66
2022/03/14 01:33:19;;;;;;;24.70;15.20;;;;;;;2.81;35.81;101613.78;7394341;19;20508;-66
2022/03/14 01:35:47;;;;;;;26.38;14.98;;;;;;;2.79;36.02;101612.84;7394782;19;20018;-66
2022/03/14 01:38:15;;;;;;;30.83;15.60;;;;;;;2.76;35.93;101621.44;7395933;19;20035;-66
2022/03/14 01:40:43;;;;;;;26.40;15.60;;;;;;;2.73;36.06;101616.19;7395849;19;20019;-67
2022/03/14 01:43:12;;;;;;;23.75;14.35;;;;;;;2.70;36.10;101620.41;7394068;19;20021;-67
2022/03/14 01:45:44;;;;;;;26.05;14.68;;;;;;;2.67;35.99;101623.81;7395748;19;20025;-66
2022/03/14 01:48:12;;;;;;;29.27;15.30;;;;;;;2.62;35.95;101622.81;7396017;19;20018;-66
2022/03/14 01:50:40;;;;;;;28.77;15.77;;;;;;;2.63;36.02;101636.63;7395593;19;20035;-66
2022/03/14 01:53:09;;;;;;;26.92;16.13;;;;;;;2.59;36.20;101623.63;7390997;19;20026;-65
2022/03/14 01:55:37;;;;;;;27.58;16.92;;;;;;;2.57;36.26;101616.66;7394353;19;20091;-66
2022/03/14 01:58:06;;;;;;;29.02;15.00;;;;;;;2.54;36.13;101619.16;7393257;19;20373;-66
2022/03/14 02:00:34;;;;;;;30.75;17.08;;;;;;;2.51;36.18;101621.69;7393576;19;20026;-66
2022/03/14 02:03:05;;;;;;;26.33;15.27;;;;;;;2.48;36.32;101624.16;7394378;19;20026;-66
2022/03/14 02:05:34;;;;;;;27.15;15.80;;;;;;;2.44;36.51;101624.09;7395602;19;20389;-66
2022/03/14 02:08:02;;;;;;;27.48;16.05;;;;;;;2.41;36.43;101618.88;7395037;19;20025;-66
2022/03/14 02:10:30;;;;;;;26.92;15.48;;;;;;;2.36;36.69;101607.47;7395028;19;20019;-66
2022/03/14 02:12:59;;;;;;;28.38;15.73;;;;;;;2.33;36.97;101610.00;7395207;19;20448;-66
2022/03/14 02:15:27;;;;;;;32.30;17.20;;;;;;;2.29;36.81;101603.00;7393954;19;20042;-66
2022/03/14 02:17:55;;;;;;;29.77;15.85;;;;;;;2.26;36.78;101602.91;7393019;19;20019;-66
2022/03/14 02:20:26;;;;;;;25.92;16.05;;;;;;;2.24;37.13;101604.59;7394823;19;20035;-66
2022/03/14 02:22:55;;;;;;;27.85;17.02;;;;;;;2.21;37.03;101607.97;7394014;19;20488;-65
2022/03/14 02:25:23;;;;;;;28.98;17.20;;;;;;;2.17;36.92;101600.94;7392701;19;20041;-67
2022/03/14 02:27:52;;;;;;;28.63;16.52;;;;;;;2.17;36.87;101613.03;7394647;19;20227;-66
2022/03/14 02:30:22;;;;;;;33.22;17.98;;;;;;;2.14;36.98;101612.91;7394618;19;20035;-66
2022/03/14 02:32:51;;;;;;;27.00;15.77;;;;;;;2.11;37.13;101617.19;7393006;19;20015;-66
2022/03/14 02:35:19;;;;;;;30.88;17.70;;;;;;;2.08;36.97;101614.50;7394252;19;20480;-68
2022/03/14 02:37:50;;;;;;;35.03;19.00;;;;;;;2.07;37.50;101620.56;7394494;19;20035;-67
2022/03/14 02:40:18;;;;;;;28.13;16.42;;;;;;;2.04;37.20;101619.59;7392354;19;20018;-67
2022/03/14 02:42:46;;;;;;;30.15;18.35;;;;;;;2.00;37.38;101621.22;7393351;19;20026;-67
2022/03/14 02:45:14;;;;;;;30.70;17.45;;;;;;;1.97;37.48;101631.47;7394126;19;20035;-67
2022/03/14 02:47:43;;;;;;;30.70;17.67;;;;;;;1.94;37.47;101631.38;7393615;19;20413;-67
2022/03/14 02:50:12;;;;;;;29.80;17.25;;;;;;;1.92;37.65;101627.88;7394004;19;20010;-67
2022/03/14 02:52:41;;;;;;;29.67;18.17;;;;;;;1.87;37.66;101630.34;7393201;19;20035;-67
2022/03/14 02:55:12;;;;;;;30.42;17.60;;;;;;;1.85;37.68;101631.13;7393688;19;20029;-67
2022/03/14 02:57:40;;;;;;;27.88;17.02;;;;;;;1.81;37.88;101637.94;7393506;19;20035;-67
2022/03/14 03:00:10;;;;;;;31.80;17.27;;;;;;;1.77;37.97;101639.56;7393799;19;20058;-67
2022/03/14 03:02:38;;;;;;;28.83;17.08;;;;;;;1.74;38.01;101643.75;7392764;19;20443;-67
2022/03/14 03:05:07;;;;;;;28.90;16.95;;;;;;;1.71;38.15;101639.38;7400992;19;20014;-67
2022/03/14 03:07:39;;;;;;;32.67;16.45;;;;;;;1.67;38.25;101642.72;7400883;19;20018;-67
2022/03/14 03:10:08;;;;;;;26.55;17.02;;;;;;;1.65;38.31;101649.53;7401145;19;20025;-66
2022/03/14 03:12:40;;;;;;;32.85;17.98;;;;;;;1.58;38.23;101634.66;7398014;19;20018;-66
2022/03/14 03:15:15;;;;;;;30.08;17.33;;;;;;;1.55;38.56;101635.44;7399170;19;20015;-67
2022/03/14 03:17:43;;;;;;;30.73;17.50;;;;;;;1.53;38.65;101634.53;7399783;19;20478;-67
2022/03/14 03:20:12;;;;;;;28.30;17.23;;;;;;;1.51;38.66;101632.75;7401780;19;20014;-67
2022/03/14 03:22:40;;;;;;;32.40;17.77;;;;;;;1.48;38.65;101637.81;7401868;19;20018;-67
2022/03/14 03:25:09;;;;;;;30.48;18.42;;;;;;;1.45;38.67;101636.91;7397667;19;20022;-67
2022/03/14 03:27:40;;;;;;;29.15;17.95;;;;;;;1.43;39.21;101641.13;7397619;19;20022;-67
2022/03/14 03:30:09;;;;;;;30.98;17.52;;;;;;;1.41;38.88;101644.50;7400214;19;20022;-67
2022/03/14 03:32:37;;;;;;;30.33;17.17;;;;;;;1.38;38.78;101650.47;7398544;19;20015;-67
2022/03/14 03:35:06;;;;;;;33.70;19.73;;;;;;;1.36;38.72;101651.25;7399980;19;20019;-65
2022/03/14 03:37:34;;;;;;;36.38;19.65;;;;;;;1.35;38.95;101650.34;7399620;19;20432;-67
2022/03/14 03:40:02;;;;;;;33.90;18.13;;;;;;;1.32;38.97;101650.28;7397250;19;20027;-67
2022/03/14 03:42:30;;;;;;;30.45;17.27;;;;;;;1.29;38.88;101655.38;7398918;19;20022;-67
2022/03/14 03:45:01;;;;;;;33.20;18.05;;;;;;;1.27;39.19;101657.88;7399794;19;20035;-67
2022/03/14 03:47:29;;;;;;;32.03;18.33;;;;;;;1.24;39.24;101657.81;7397765;19;20014;-67
2022/03/14 03:49:57;;;;;;;34.35;19.23;;;;;;;1.22;39.24;101666.34;7399122;19;20420;-67
2022/03/14 03:52:25;;;;;;;29.33;17.95;;;;;;;1.21;39.17;101672.34;7398770;19;20046;-67
2022/03/14 03:54:53;;;;;;;31.13;18.27;;;;;;;1.17;39.12;101675.66;7399276;19;20018;-67
2022/03/14 03:57:21;;;;;;;35.55;18.25;;;;;;;1.14;39.50;101677.31;7399249;19;20421;-67
2022/03/14 03:59:50;;;;;;;34.08;18.20;;;;;;;1.12;39.39;101678.09;7399218;19;20018;-67
2022/03/14 04:02:21;;;;;;;33.22;17.85;;;;;;;1.08;39.41;101682.28;7398461;19;20019;-67
2022/03/14 04:04:49;;;;;;;31.67;17.45;;;;;;;1.06;39.66;101686.53;7397281;19;20014;-67
2022/03/14 04:07:19;;;;;;;34.90;19.77;;;;;;;1.04;39.54;101688.19;7396581;19;20138;-67
2022/03/14 04:09:49;;;;;;;30.55;17.48;;;;;;;1.00;39.82;101688.03;7396257;19;20019;-66
2022/03/14 04:12:18;;;;;;;30.55;17.60;;;;;;;0.95;39.76;101690.47;7398144;19;20022;-67
2022/03/14 04:14:47;;;;;;;31.63;18.13;;;;;;;0.93;39.94;101677.47;7394316;19;20036;-67
2022/03/14 04:17:15;;;;;;;31.77;18.85;;;;;;;0.91;40.09;101680.84;7396495;19;20011;-67
2022/03/14 04:19:45;;;;;;;30.52;18.48;;;;;;;0.89;40.14;101690.28;7395970;19;20023;-66
2022/03/14 04:22:14;;;;;;;31.55;18.85;;;;;;;0.84;40.08;101686.66;7398393;19;20499;-66
2022/03/14 04:24:42;;;;;;;32.95;18.42;;;;;;;0.82;40.08;101686.59;7398342;19;20439;-67
2022/03/14 04:27:11;;;;;;;33.28;18.85;;;;;;;0.80;40.40;101685.66;7398583;19;20019;-66
2022/03/14 04:29:40;;;;;;;32.30;18.75;;;;;;;0.76;40.41;101681.25;7395950;19;20052;-66
2022/03/14 04:32:09;;;;;;;35.50;18.27;;;;;;;0.73;40.45;101688.88;7397535;19;20014;-66
2022/03/14 04:34:37;;;;;;;32.63;19.20;;;;;;;0.70;40.47;101697.38;7395775;19;20014;-67
2022/03/14 04:37:08;;;;;;;30.95;18.70;;;;;;;0.66;40.63;101695.53;7395867;19;20081;-66
2022/03/14 04:39:37;;;;;;;34.88;19.70;;;;;;;0.62;40.94;101691.97;7397832;19;20024;-67
2022/03/14 04:42:05;;;;;;;35.28;19.42;;;;;;;0.59;41.12;101694.44;7395293;19;20018;-67
2022/03/14 04:44:34;;;;;;;34.75;19.85;;;;;;;0.56;41.04;101696.06;7397215;19;20031;-67
2022/03/14 04:47:02;;;;;;;31.70;18.33;;;;;;;0.53;40.90;101693.34;7397504;19;20032;-66
2022/03/14 04:49:30;;;;;;;31.75;18.90;;;;;;;0.50;41.13;101696.69;7395010;19;20019;-66
2022/03/14 04:51:59;;;;;;;34.92;20.50;;;;;;;0.47;41.25;101689.72;7396294;19;20014;-67
2022/03/14 04:54:30;;;;;;;32.90;18.63;;;;;;;0.45;41.38;101690.50;7396788;19;20022;-67
2022/03/14 04:56:58;;;;;;;38.17;19.35;;;;;;;0.41;41.45;101692.09;7395164;19;20018;-67
2022/03/14 04:59:26;;;;;;;33.92;19.23;;;;;;;0.39;41.53;101698.94;7396526;19;20019;-67
2022/03/14 05:01:54;;;;;;;27.92;17.77;;;;;;;0.37;41.34;101705.72;7395944;19;20496;-67
2022/03/14 05:04:22;;;;;;;31.55;18.10;;;;;;;0.34;41.54;101697.84;7396545;19;20031;-66
2022/03/14 05:06:57;;;;;;;32.15;18.45;;;;;;;0.32;41.77;101702.97;7396308;19;20035;-67
2022/03/14 05:09:25;;;;;;;34.08;18.42;;;;;;;0.30;41.55;101701.16;7394267;19;20045;-66
2022/03/14 05:11:56;;;;;;;36.13;19.15;;;;;;;0.27;41.65;101703.66;7396219;19;20039;-66
2022/03/14 05:14:24;;;;;;;33.97;20.05;;;;;;;0.24;41.93;101708.69;7394711;19;20037;-67
2022/03/14 05:16:53;;;;;;;31.95;17.77;;;;;;;0.23;41.97;101714.66;7396154;19;20047;-67
2022/03/14 05:19:27;;;;;;;35.10;18.90;;;;;;;0.20;41.86;101701.66;7395321;19;20023;-65
2022/03/14 05:21:55;;;;;;;37.85;19.45;;;;;;;0.19;42.15;101705.06;7395965;19;20022;-67
2022/03/14 05:24:23;;;;;;;33.22;18.77;;;;;;;0.10;42.14;101698.75;7395570;19;20014;-66
2022/03/14 05:26:53;;;;;;;31.20;17.73;;;;;;;0.14;42.20;101708.34;7393544;19;20024;-67
2022/03/14 05:29:24;;;;;;;31.48;17.85;;;;;;;0.13;42.16;101710.88;7395559;19;20018;-64
2022/03/14 05:31:52;;;;;;;34.15;19.00;;;;;;;0.11;42.08;101715.97;7395339;19;20019;-67
2022/03/14 05:34:20;;;;;;;36.63;18.13;;;;;;;0.09;42.07;101719.31;7392685;19;20045;-66
2022/03/14 05:36:48;;;;;;;30.50;17.23;;;;;;;0.07;42.51;101718.41;7393562;19;20037;-66
2022/03/14 05:39:17;;;;;;;33.13;17.88;;;;;;;0.06;42.38;101719.22;7393356;19;20490;-66
2022/03/14 05:41:45;;;;;;;36.17;19.40;;;;;;;0.03;42.45;101713.97;7395235;19;20035;-66
2022/03/14 05:44:13;;;;;;;33.30;19.17;;;;;;;0.02;42.37;101720.81;7393779;19;20022;-66
2022/03/14 05:46:44;;;;;;;28.95;16.27;;;;;;;0.01;42.37;101719.03;7394073;19;20018;-67
2022/03/14 05:49:12;;;;;;;32.10;18.30;;;;;;;-0.04;42.57;101715.41;7395122;19;20022;-66
2022/03/14 05:51:40;;;;;;;33.28;18.50;;;;;;;-0.01;42.78;101718.13;7394657;19;20031;-67
2022/03/14 05:54:08;;;;;;;30.05;16.98;;;;;;;-0.02;42.56;101724.09;7393220;19;20023;-66
2022/03/14 05:56:36;;;;;;;34.00;20.35;;;;;;;-0.03;42.57;101728.34;7393820;19;20078;-66
2022/03/14 05:59:07;;;;;;;35.40;17.95;;;;;;;-0.02;42.60;101727.53;7392640;19;20142;-67
2022/03/14 06:01:38;;;;;;;30.23;17.52;;;;;;;-0.03;42.73;101730.06;7392082;19;20018;-67
2022/03/14 06:04:09;;;;;;;29.08;18.92;;;;;;;-0.03;42.68;101724.91;7392563;19;20033;-66
2022/03/14 06:06:38;;;;;;;34.55;18.27;;;;;;;-0.02;42.87;101724.09;7392718;19;20078;-67
2022/03/14 06:09:06;;;;;;;32.97;17.63;;;;;;;-0.03;42.97;101728.34;7391594;19;20018;-67
2022/03/14 06:11:34;;;;;;;30.55;16.65;;;;;;;-0.02;42.90;101731.84;7392374;19;20349;-67
2022/03/14 06:14:24;;;;;;;28.48;16.67;;;;;;;-0.03;43.21;101730.06;7393907;19;20486;-67
2022/03/14 06:16:52;;;;;;;28.35;18.35;;;;;;;-0.02;43.08;101731.84;7393134;19;20039;-67
2022/03/14 06:19:23;;;;;;;32.20;16.55;;;;;;;-0.02;42.92;101734.41;7393482;19;20028;-67
2022/03/14 06:21:51;;;;;;;28.10;16.95;;;;;;;-0.02;43.16;101730.13;7394170;19;20022;-66
2022/03/14 06:24:19;;;;;;;32.33;17.70;;;;;;;0.00;42.98;101730.22;7390691;19;20014;-66
2022/03/14 06:26:47;;;;;;;29.48;17.40;;;;;;;0.02;43.28;101740.56;7394072;19;20019;-65
2022/03/14 06:29:15;;;;;;;29.10;17.73;;;;;;;-0.04;43.13;101733.47;7393759;19;20095;-66
2022/03/14 06:31:44;;;;;;;35.50;18.98;;;;;;;0.04;43.16;101737.22;7394016;19;20014;-66
2022/03/14 06:34:26;;;;;;;33.25;17.27;;;;;;;0.07;43.57;101741.63;7391574;19;20014;-66
2022/03/14 06:36:56;;;;;;;29.08;16.17;;;;;;;0.09;43.30;101742.53;7391304;19;20490;-67
2022/03/14 06:39:24;;;;;;;29.05;17.10;;;;;;;0.12;43.53;101742.66;7400277;19;20028;-67
2022/03/14 06:41:53;;;;;;;26.70;16.55;;;;;;;0.15;43.48;101743.66;7400894;19;20031;-67
2022/03/14 06:44:22;;;;;;;29.40;17.10;;;;;;;0.20;43.19;101748.13;7400908;19;20015;-67
2022/03/14 06:46:52;;;;;;;27.90;16.35;;;;;;;0.26;43.48;101748.34;7398717;19;20019;-68
2022/03/14 06:49:21;;;;;;;30.23;16.90;;;;;;;0.32;43.11;101753.72;7398469;19;20395;-67
2022/03/14 06:51:50;;;;;;;23.85;14.32;;;;;;;0.33;43.29;101750.34;7401095;19;20018;-66
2022/03/14 06:54:21;;;;;;;26.10;14.85;;;;;;;0.44;43.33;101756.78;7398511;19;20018;-66
2022/03/14 06:56:49;;;;;;;24.55;14.95;;;;;;;0.52;43.16;101766.47;7400224;19;20425;-67
2022/03/14 06:59:17;;;;;;;26.15;15.70;;;;;;;0.59;42.80;101768.47;7400608;19;20023;-67
2022/03/14 07:01:46;;;;;;;29.85;16.45;;;;;;;0.65;43.01;101766.97;7400792;19;20090;-67
2022/03/14 07:04:14;;;;;;;26.98;16.08;;;;;;;0.73;42.77;101766.34;7397528;19;20035;-67
2022/03/14 07:06:42;;;;;;;26.65;14.38;;;;;;;0.79;42.59;101769.16;7397532;19;20035;-68
2022/03/14 07:09:10;;;;;;;24.70;14.63;;;;;;;0.87;42.77;101772.00;7400367;19;20045;-67
2022/03/14 07:11:41;;;;;;;24.95;14.80;;;;;;;0.96;42.53;101772.31;7400190;19;20014;-67
2022/03/14 07:14:09;;;;;;;25.40;14.35;;;;;;;1.04;42.52;101765.72;7397796;19;20027;-66
2022/03/14 07:16:38;;;;;;;22.80;14.02;;;;;;;1.14;42.39;101772.94;7399236;19;20524;-67
2022/03/14 07:19:06;;;;;;;24.58;14.77;;;;;;;1.23;42.18;101774.09;7399690;19;20095;-65
2022/03/14 07:21:34;;;;;;;22.20;14.07;;;;;;;1.32;42.25;101770.94;7397394;19;20023;-67
2022/03/14 07:24:02;;;;;;;21.25;13.25;;;;;;;1.42;41.90;101779.03;7397393;19;20022;-66
2022/03/14 07:26:30;;;;;;;21.17;12.80;;;;;;;1.54;41.86;101780.25;7399019;19;20022;-67
2022/03/14 07:29:01;;;;;;;22.80;12.50;;;;;;;1.67;41.54;101786.69;7399596;19;20043;-67
2022/03/14 07:31:29;;;;;;;29.63;12.93;;;;;;;1.81;41.24;101784.53;7397535;19;20039;-66
2022/03/14 07:33:57;;;;;;;15.35;10.50;;;;;;;1.95;40.69;101783.28;7396394;19;20014;-67
2022/03/14 07:36:25;;;;;;;16.55;10.60;;;;;;;2.12;40.28;101781.16;7398632;19;20135;-67
2022/03/14 07:38:56;;;;;;;14.95;9.85;;;;;;;2.29;40.09;101784.28;7398471;19;20107;-67
2022/03/14 07:41:24;;;;;;;15.82;9.82;;;;;;;2.43;39.71;101787.25;7397141;19;20038;-67
2022/03/14 07:43:53;;;;;;;13.95;9.07;;;;;;;2.60;38.94;101782.53;7396978;19;20018;-67
2022/03/14 07:46:23;;;;;;;16.88;9.20;;;;;;;2.78;38.20;101782.19;7396825;19;20014;-66
2022/03/14 07:48:51;;;;;;;13.13;9.15;;;;;;;2.96;38.30;101789.56;7395479;19;20420;-66
2022/03/14 07:51:20;;;;;;;15.40;9.60;;;;;;;3.12;37.93;101796.00;7396445;19;20475;-66
2022/03/14 07:53:48;;;;;;;15.63;9.55;;;;;;;3.29;37.70;101793.00;7395781;19;20014;-67
2022/03/14 07:56:16;;;;;;;17.55;8.88;;;;;;;3.43;37.60;101797.66;7398682;19;20018;-67
2022/03/14 07:58:44;;;;;;;11.73;8.05;;;;;;;3.57;37.42;101790.22;7399019;19;20022;-66
2022/03/14 08:01:13;;;;;;;13.75;8.48;;;;;;;3.71;36.92;101794.88;7398372;19;20030;-66
2022/03/14 08:03:45;;;;;;;12.27;9.10;;;;;;;3.86;36.71;101802.13;7395936;19;20018;-66
2022/03/14 08:06:22;;;;;;;14.43;8.60;;;;;;;3.99;36.04;101804.16;7398183;19;20474;-66
2022/03/14 08:08:52;;;;;;;13.25;8.25;;;;;;;4.16;35.90;101799.34;7396666;19;20027;-67
2022/03/14 08:11:23;;;;;;;11.23;8.10;;;;;;;4.29;35.36;101803.06;7396339;19;20041;-66
2022/03/14 08:13:51;;;;;;;10.88;7.93;;;;;;;4.43;34.90;101797.31;7395698;19;20029;-66
2022/03/14 08:16:20;;;;;;;13.77;8.98;;;;;;;4.59;34.22;101794.16;7396770;19;20406;-67
2022/03/14 08:18:51;;;;;;;14.52;8.98;;;;;;;4.72;33.99;101803.94;7394944;19;20420;-67
2022/03/14 08:21:19;;;;;;;14.48;9.27;;;;;;;4.82;33.67;101805.00;7397245;19;20022;-67
2022/03/14 08:23:47;;;;;;;13.20;8.48;;;;;;;4.93;33.51;101807.81;7395673;19;20022;-67
2022/03/14 08:26:15;;;;;;;12.52;8.55;;;;;;;5.02;34.08;101807.97;7397514;19;20433;-67
2022/03/14 08:28:44;;;;;;;12.80;8.45;;;;;;;5.10;33.79;101805.50;7396965;19;20011;-69
2022/03/14 08:31:13;;;;;;;12.90;8.02;;;;;;;5.18;33.76;101814.34;7397016;19;20070;-67
2022/03/14 08:33:41;;;;;;;12.93;8.73;;;;;;;5.26;33.22;101811.88;7393534;19;20371;-67
2022/03/14 08:36:12;;;;;;;11.73;9.10;;;;;;;5.36;33.15;101816.38;7396462;19;20025;-68
2022/03/14 08:38:40;;;;;;;11.90;8.77;;;;;;;5.44;33.13;101803.50;7395004;19;20019;-67
2022/03/14 08:41:09;;;;;;;11.55;8.43;;;;;;;5.48;32.98;101786.19;7396359;19;20371;-67
2022/03/14 08:43:37;;;;;;;11.27;8.10;;;;;;;5.54;32.88;101791.50;7395333;19;20387;-68
2022/03/14 08:46:05;;;;;;;15.60;9.20;;;;;;;5.65;32.80;101799.47;7397202;19;20014;-66
2022/03/14 08:48:33;;;;;;;12.25;8.40;;;;;;;5.71;33.07;101794.34;7398880;19;20039;-67
2022/03/14 08:51:02;;;;;;;11.73;8.20;;;;;;;5.78;32.33;101797.94;7395321;19;20031;-67
2022/03/14 08:53:32;;;;;;;10.65;8.23;;;;;;;5.84;32.78;101793.69;7395698;19;20045;-66
2022/03/14 08:56:03;;;;;;;12.35;9.20;;;;;;;5.89;32.79;101796.38;7396858;19;20527;-67
2022/03/14 08:58:31;;;;;;;15.13;8.55;;;;;;;5.97;32.58;101786.06;7395995;19;20014;-67
2022/03/14 09:01:00;;;;;;;12.10;8.00;;;;;;;6.04;32.21;101787.94;7393550;19;20018;-66
2022/03/14 09:03:28;;;;;;;11.60;7.55;;;;;;;6.11;32.36;101783.69;7395458;19;20022;-68
2022/03/14 09:05:57;;;;;;;10.60;7.97;;;;;;;6.19;32.16;101780.31;7394516;19;20011;-67
2022/03/14 09:08:25;;;;;;;13.05;8.73;;;;;;;6.28;32.09;101784.78;7397140;19;20011;-67
2022/03/14 09:11:00;;;;;;;11.25;7.38;;;;;;;6.37;31.42;101784.03;7396322;19;20015;-66
2022/03/14 09:13:28;;;;;;;13.30;8.32;;;;;;;6.48;31.69;101778.94;7393920;19;20383;-67
2022/03/14 09:15:57;;;;;;;10.77;7.82;;;;;;;6.58;31.17;101788.59;7394007;19;20500;-67
2022/03/14 09:18:31;;;;;;;13.45;8.57;;;;;;;6.69;30.69;101784.38;7394735;19;20030;-68
2022/03/14 09:20:59;;;;;;;11.13;7.95;;;;;;;6.80;30.57;101784.50;7394675;19;20019;-68
2022/03/14 09:23:27;;;;;;;11.57;7.70;;;;;;;6.89;30.24;101781.13;7394596;19;20018;-66
2022/03/14 09:25:59;;;;;;;11.48;8.52;;;;;;;6.98;30.24;101780.34;7394203;19;20078;-68
2022/03/14 09:28:29;;;;;;;12.93;8.05;;;;;;;7.07;29.51;101774.34;7394676;19;20018;-67
2022/03/14 09:30:58;;;;;;;14.45;8.27;;;;;;;7.13;29.98;101779.63;7395860;19;20029;-67
2022/03/14 09:33:26;;;;;;;13.98;8.35;;;;;;;7.21;29.97;101777.94;7393239;19;20062;-66
2022/03/14 09:35:54;;;;;;;13.25;9.07;;;;;;;7.28;30.06;101779.75;7395339;19;20015;-66
2022/03/14 09:38:24;;;;;;;12.18;8.73;;;;;;;7.31;29.88;101795.41;7393983;19;20032;-65
2022/03/14 09:40:52;;;;;;;12.23;8.25;;;;;;;7.39;29.80;101797.22;7395252;19;20015;-67
2022/03/14 09:43:27;;;;;;;10.32;8.13;;;;;;;7.45;29.62;101810.34;7392698;19;20452;-67
2022/03/14 09:45:55;;;;;;;11.98;8.52;;;;;;;7.50;29.95;101791.22;7392890;19;20479;-66
2022/03/14 09:48:26;;;;;;;14.27;9.23;;;;;;;7.54;30.04;101788.66;7393012;19;20429;-66
2022/03/14 09:50:55;;;;;;;11.88;8.82;;;;;;;7.66;30.14;101807.03;7394189;19;20475;-66
2022/03/14 09:53:23;;;;;;;12.98;8.40;;;;;;;7.73;29.95;101803.56;7392790;19;20019;-68
2022/03/14 09:55:52;;;;;;;11.45;8.10;;;;;;;7.82;30.00;101808.00;7394885;19;20019;-66
2022/03/14 09:58:21;;;;;;;11.65;8.65;;;;;;;7.89;30.10;101809.78;7394076;19;20022;-66
2022/03/14 10:00:53;;;;;;;12.77;9.00;;;;;;;7.97;29.43;101794.16;7393324;19;20019;-67
2022/03/14 10:03:23;;;;;;;11.35;8.10;;;;;;;8.08;29.75;101809.91;7394255;19;20018;-67
2022/03/14 10:05:51;;;;;;;12.38;8.90;;;;;;;8.19;29.70;101815.19;7394666;19;20045;-67
2022/03/14 10:08:19;;;;;;;10.82;8.35;;;;;;;8.28;29.58;101808.28;7394534;19;20019;-68
2022/03/14 10:10:47;;;;;;;14.00;9.07;;;;;;;8.37;29.68;101807.44;7393057;19;20018;-67
2022/03/14 10:13:16;;;;;;;11.40;8.68;;;;;;;8.46;29.32;101806.63;7395317;19;20019;-67
2022/03/14 10:15:45;;;;;;;13.80;9.52;;;;;;;8.57;29.49;101807.56;7401786;19;20022;-66
2022/03/14 10:18:18;;;;;;;13.48;8.90;;;;;;;8.67;29.34;101804.97;7400298;19;20014;-67
2022/03/14 10:21:05;;;;;;;12.10;8.82;;;;;;;8.77;29.29;101802.38;7402278;19;20018;-66
2022/03/14 10:23:34;;;;;;;11.27;8.40;;;;;;;8.85;29.40;101802.41;7399806;19;20074;-65
2022/03/14 10:26:03;;;;;;;12.27;8.93;;;;;;;8.95;29.49;101817.25;7401764;19;20026;-67
2022/03/14 10:28:33;;;;;;;12.38;8.82;;;;;;;9.05;29.15;101810.31;7401817;19;20019;-67
2022/03/14 10:31:03;;;;;;;12.50;8.50;;;;;;;9.15;29.28;101805.06;7398998;19;20019;-65
2022/03/14 10:33:34;;;;;;;11.73;9.18;;;;;;;9.24;28.94;101813.81;7397846;19;20014;-65
2022/03/14 10:36:04;;;;;;;15.00;9.48;;;;;;;9.34;28.98;101805.94;7399934;19;20027;-64
2022/03/14 10:38:33;;;;;;;9.45;8.35;;;;;;;9.41;28.94;101815.56;7399974;19;20022;-64
2022/03/14 10:41:15;;;;;;;17.52;8.93;;;;;;;9.55;28.37;101812.94;7398086;19;20090;-64
2022/03/14 10:43:43;;;;;;;12.02;8.60;;;;;;;9.62;28.23;101823.41;7397904;19;20035;-64
2022/03/14 10:46:11;;;;;;;15.00;9.32;;;;;;;9.70;28.46;101828.66;7400492;19;20492;-65
2022/03/14 10:48:43;;;;;;;13.55;10.15;;;;;;;9.79;27.65;101833.00;7398384;19;20018;-65
2022/03/14 10:51:14;;;;;;;11.25;8.43;;;;;;;9.87;28.09;101836.50;7397929;19;20420;-66
2022/03/14 10:53:44;;;;;;;11.07;8.70;;;;;;;9.93;27.95;101836.50;7398089;19;20022;-66
2022/03/14 10:56:13;;;;;;;13.95;9.40;;;;;;;9.99;28.10;101838.22;7398653;19;20045;-66
2022/03/14 10:58:43;;;;;;;13.10;10.27;;;;;;;10.05;28.11;101845.22;7397881;19;20032;-66
2022/03/14 11:01:12;;;;;;;13.43;9.52;;;;;;;10.09;27.98;101836.47;7400815;19;20018;-69
2022/03/14 11:03:46;;;;;;;13.13;9.30;;;;;;;10.16;27.91;101838.22;7397999;19;20384;-67
2022/03/14 11:06:16;;;;;;;14.25;9.40;;;;;;;10.21;28.00;101849.56;7401050;19;20130;-67
2022/03/14 11:08:47;;;;;;;14.45;9.77;;;;;;;10.27;27.93;101856.53;7397680;19;20029;-67
2022/03/14 11:11:17;;;;;;;14.35;8.98;;;;;;;10.30;27.95;101851.28;7400681;19;20021;-67
2022/03/14 11:13:47;;;;;;;16.38;9.40;;;;;;;10.35;28.00;101848.63;7397781;19;20015;-67
2022/03/14 11:16:20;;;;;;;14.60;9.48;;;;;;;10.36;27.62;101840.81;7400418;19;20035;-67
2022/03/14 11:18:53;;;;;;;12.68;9.90;;;;;;;10.43;27.66;101849.53;7399069;19;20028;-67
2022/03/14 11:21:24;;;;;;;13.57;9.23;;;;;;;10.44;27.71;101851.28;7400433;19;20023;-66
2022/03/14 11:23:54;;;;;;;12.10;9.25;;;;;;;10.46;27.75;101852.13;7396554;19;20014;-67
2022/03/14 11:26:31;;;;;;;12.52;9.63;;;;;;;10.45;27.67;101849.50;7397732;19;20014;-67
2022/03/14 11:29:00;;;;;;;12.45;9.48;;;;;;;10.49;27.79;101859.13;7400077;19;20417;-68